sensor_id;sensor_type;location;lat;lon;timestamp;pressure;altitude;pressure_sealevel;temperature;humidity
79269;BME280;68714;48.586;7.772;2023-05-28T00:01:49;99942.28;;;17.72;40.24
79269;BME280;68714;48.586;7.772;2023-05-28T00:04:15;99941.63;;;17.69;40.24
79269;BME280;68714;48.586;7.772;2023-05-28T00:06:41;99942.03;;;17.62;40.22
79269;BME280;68714;48.586;7.772;2023-05-28T00:09:07;99937.78;;;17.60;40.43
79269;BME280;68714;48.586;7.772;2023-05-28T00:11:33;99938.84;;;17.57;40.23
79269;BME280;68714;48.586;7.772;2023-05-28T00:13:58;99941.63;;;17.56;40.40
79269;BME280;68714;48.586;7.772;2023-05-28T00:16:24;99937.22;;;17.55;40.18
79269;BME280;68714;48.586;7.772;2023-05-28T00:18:50;99938.09;;;17.55;40.33
79269;BME280;68714;48.586;7.772;2023-05-28T00:21:15;99937.34;;;17.53;40.38
79269;BME280;68714;48.586;7.772;2023-05-28T00:23:41;99936.59;;;17.51;40.50
79269;BME280;68714;48.586;7.772;2023-05-28T00:26:06;99934.25;;;17.46;40.41
79269;BME280;68714;48.586;7.772;2023-05-28T00:28:32;99932.63;;;17.44;40.60
79269;BME280;68714;48.586;7.772;2023-05-28T00:30:57;99932.09;;;17.39;40.62
79269;BME280;68714;48.586;7.772;2023-05-28T00:33:23;99932.63;;;17.31;40.71
79269;BME280;68714;48.586;7.772;2023-05-28T00:35:48;99928.34;;;17.28;40.82
79269;BME280;68714;48.586;7.772;2023-05-28T00:38:20;99923.44;;;17.22;40.79
79269;BME280;68714;48.586;7.772;2023-05-28T00:40:45;99921.84;;;17.20;40.75
79269;BME280;68714;48.586;7.772;2023-05-28T00:43:11;99925.56;;;17.17;40.88
79269;BME280;68714;48.586;7.772;2023-05-28T00:45:36;99928.75;;;17.09;40.89
79269;BME280;68714;48.586;7.772;2023-05-28T00:48:02;99920.19;;;17.04;41.04
79269;BME280;68714;48.586;7.772;2023-05-28T00:50:27;99926.50;;;17.03;41.09
79269;BME280;68714;48.586;7.772;2023-05-28T00:52:54;99920.50;;;17.00;41.35
79269;BME280;68714;48.586;7.772;2023-05-28T00:55:21;99919.31;;;16.91;41.21
79269;BME280;68714;48.586;7.772;2023-05-28T00:57:47;99923.31;;;16.84;41.59
79269;BME280;68714;48.586;7.772;2023-05-28T01:00:13;99928.09;;;16.79;41.44
79269;BME280;68714;48.586;7.772;2023-05-28T01:02:39;99926.78;;;16.71;41.90
79269;BME280;68714;48.586;7.772;2023-05-28T01:05:05;99925.47;;;16.64;41.86
79269;BME280;68714;48.586;7.772;2023-05-28T01:07:32;99929.09;;;16.63;41.77
79269;BME280;68714;48.586;7.772;2023-05-28T01:09:58;99925.03;;;16.57;41.87
79269;BME280;68714;48.586;7.772;2023-05-28T01:12:24;99919.16;;;16.52;41.88
79269;BME280;68714;48.586;7.772;2023-05-28T01:14:52;99907.50;;;16.53;42.12
79269;BME280;68714;48.586;7.772;2023-05-28T01:17:18;99909.34;;;16.53;42.03
79269;BME280;68714;48.586;7.772;2023-05-28T01:19:44;99908.69;;;16.49;42.15
79269;BME280;68714;48.586;7.772;2023-05-28T01:22:15;99903.63;;;16.45;42.33
79269;BME280;68714;48.586;7.772;2023-05-28T01:24:41;99904.44;;;16.32;43.97
79269;BME280;68714;48.586;7.772;2023-05-28T01:27:08;99899.09;;;16.32;42.43
79269;BME280;68714;48.586;7.772;2023-05-28T01:29:33;99905.41;;;16.31;42.51
79269;BME280;68714;48.586;7.772;2023-05-28T01:32:00;99902.94;;;16.28;42.49
79269;BME280;68714;48.586;7.772;2023-05-28T01:34:26;99895.97;;;16.26;42.50
79269;BME280;68714;48.586;7.772;2023-05-28T01:36:55;99890.97;;;16.21;42.74
79269;BME280;68714;48.586;7.772;2023-05-28T01:39:24;99889.34;;;16.18;42.58
79269;BME280;68714;48.586;7.772;2023-05-28T01:41:50;99890.22;;;16.19;42.78
79269;BME280;68714;48.586;7.772;2023-05-28T01:44:17;99888.59;;;16.16;42.67
79269;BME280;68714;48.586;7.772;2023-05-28T01:46:45;99890.50;;;16.14;42.71
79269;BME280;68714;48.586;7.772;2023-05-28T01:49:11;99896.78;;;16.13;42.89
79269;BME280;68714;48.586;7.772;2023-05-28T01:51:37;99886.13;;;16.13;42.69
79269;BME280;68714;48.586;7.772;2023-05-28T01:54:03;99883.38;;;16.15;42.63
79269;BME280;68714;48.586;7.772;2023-05-28T01:56:29;99885.19;;;16.14;42.60
79269;BME280;68714;48.586;7.772;2023-05-28T01:58:54;99881.00;;;16.10;42.76
79269;BME280;68714;48.586;7.772;2023-05-28T02:01:31;99892.69;;;16.08;42.99
79269;BME280;68714;48.586;7.772;2023-05-28T02:03:59;99887.34;;;16.08;42.76
79269;BME280;68714;48.586;7.772;2023-05-28T02:06:27;99882.41;;;16.01;42.81
79269;BME280;68714;48.586;7.772;2023-05-28T02:08:52;99886.25;;;15.97;42.70
79269;BME280;68714;48.586;7.772;2023-05-28T02:11:18;99898.97;;;15.92;42.92
79269;BME280;68714;48.586;7.772;2023-05-28T02:13:44;99899.34;;;15.86;42.78
79269;BME280;68714;48.586;7.772;2023-05-28T02:16:09;99901.19;;;15.85;43.03
79269;BME280;68714;48.586;7.772;2023-05-28T02:18:36;99901.09;;;15.87;42.89
79269;BME280;68714;48.586;7.772;2023-05-28T02:21:03;99901.19;;;15.85;42.95
79269;BME280;68714;48.586;7.772;2023-05-28T02:23:28;99896.22;;;15.79;42.93
79269;BME280;68714;48.586;7.772;2023-05-28T02:25:54;99898.38;;;15.73;43.14
79269;BME280;68714;48.586;7.772;2023-05-28T02:28:19;99894.13;;;15.70;43.09
79269;BME280;68714;48.586;7.772;2023-05-28T02:30:45;99902.38;;;15.65;43.25
79269;BME280;68714;48.586;7.772;2023-05-28T02:33:10;99901.88;;;15.59;43.29
79269;BME280;68714;48.586;7.772;2023-05-28T02:35:36;99905.50;;;15.58;43.30
79269;BME280;68714;48.586;7.772;2023-05-28T02:38:01;99896.19;;;15.50;43.38
79269;BME280;68714;48.586;7.772;2023-05-28T02:40:27;99894.00;;;15.43;43.43
79269;BME280;68714;48.586;7.772;2023-05-28T02:42:52;99904.16;;;15.36;43.68
79269;BME280;68714;48.586;7.772;2023-05-28T02:45:17;99909.84;;;15.30;43.81
79269;BME280;68714;48.586;7.772;2023-05-28T02:47:43;99905.00;;;15.22;44.01
79269;BME280;68714;48.586;7.772;2023-05-28T02:50:09;99905.25;;;15.18;43.93
79269;BME280;68714;48.586;7.772;2023-05-28T02:52:34;99909.78;;;15.15;44.23
79269;BME280;68714;48.586;7.772;2023-05-28T02:55:00;99909.88;;;15.14;44.42
79269;BME280;68714;48.586;7.772;2023-05-28T02:57:26;99911.78;;;15.12;44.41
79269;BME280;68714;48.586;7.772;2023-05-28T02:59:51;99912.81;;;15.09;44.43
79269;BME280;68714;48.586;7.772;2023-05-28T03:02:16;99918.31;;;15.06;44.26
79269;BME280;68714;48.586;7.772;2023-05-28T03:04:42;99912.25;;;15.04;44.55
79269;BME280;68714;48.586;7.772;2023-05-28T03:07:08;99915.66;;;15.06;44.51
79269;BME280;68714;48.586;7.772;2023-05-28T03:09:36;99914.81;;;15.06;44.36
79269;BME280;68714;48.586;7.772;2023-05-28T03:12:01;99917.47;;;15.06;44.78
79269;BME280;68714;48.586;7.772;2023-05-28T03:14:26;99911.38;;;15.04;44.63
79269;BME280;68714;48.586;7.772;2023-05-28T03:16:52;99916.28;;;14.95;44.83
79269;BME280;68714;48.586;7.772;2023-05-28T03:19:17;99923.69;;;14.90;44.90
79269;BME280;68714;48.586;7.772;2023-05-28T03:21:44;99923.69;;;14.90;44.96
79269;BME280;68714;48.586;7.772;2023-05-28T03:24:09;99920.41;;;14.85;44.94
79269;BME280;68714;48.586;7.772;2023-05-28T03:26:35;99918.72;;;14.84;45.18
79269;BME280;68714;48.586;7.772;2023-05-28T03:29:01;99926.88;;;14.81;45.19
79269;BME280;68714;48.586;7.772;2023-05-28T03:31:28;99918.28;;;14.76;45.65
79269;BME280;68714;48.586;7.772;2023-05-28T03:33:55;99922.00;;;14.73;45.56
79269;BME280;68714;48.586;7.772;2023-05-28T03:36:21;99918.47;;;14.73;45.74
79269;BME280;68714;48.586;7.772;2023-05-28T03:38:47;99918.47;;;14.73;45.73
79269;BME280;68714;48.586;7.772;2023-05-28T03:41:12;99915.06;;;14.71;45.50
79269;BME280;68714;48.586;7.772;2023-05-28T03:43:38;99921.56;;;14.65;45.97
79269;BME280;68714;48.586;7.772;2023-05-28T03:46:03;99917.22;;;14.64;45.79
79269;BME280;68714;48.586;7.772;2023-05-28T03:48:29;99923.19;;;14.68;45.85
79269;BME280;68714;48.586;7.772;2023-05-28T03:50:54;99915.31;;;14.66;45.90
79269;BME280;68714;48.586;7.772;2023-05-28T03:53:21;99924.13;;;14.67;45.94
79269;BME280;68714;48.586;7.772;2023-05-28T03:55:46;99920.44;;;14.69;46.05
79269;BME280;68714;48.586;7.772;2023-05-28T03:58:11;99923.88;;;14.71;46.06
79269;BME280;68714;48.586;7.772;2023-05-28T04:00:39;99922.94;;;14.72;45.88
79269;BME280;68714;48.586;7.772;2023-05-28T04:03:05;99928.16;;;14.74;46.11
79269;BME280;68714;48.586;7.772;2023-05-28T04:05:30;99921.81;;;14.76;46.05
79269;BME280;68714;48.586;7.772;2023-05-28T04:07:58;99919.16;;;14.76;46.06
79269;BME280;68714;48.586;7.772;2023-05-28T04:10:24;99929.63;;;14.79;46.03
79269;BME280;68714;48.586;7.772;2023-05-28T04:12:50;99927.81;;;14.80;46.23
79269;BME280;68714;48.586;7.772;2023-05-28T04:15:15;99933.88;;;14.82;46.22
79269;BME280;68714;48.586;7.772;2023-05-28T04:17:41;99930.28;;;14.83;46.23
79269;BME280;68714;48.586;7.772;2023-05-28T04:20:07;99931.13;;;14.84;46.28
79269;BME280;68714;48.586;7.772;2023-05-28T04:22:32;99937.22;;;14.86;46.31
79269;BME280;68714;48.586;7.772;2023-05-28T04:24:59;99930.78;;;14.90;46.31
79269;BME280;68714;48.586;7.772;2023-05-28T04:27:24;99933.34;;;14.91;46.38
79269;BME280;68714;48.586;7.772;2023-05-28T04:29:50;99941.31;;;14.91;46.42
79269;BME280;68714;48.586;7.772;2023-05-28T04:32:17;99945.69;;;14.92;46.36
79269;BME280;68714;48.586;7.772;2023-05-28T04:34:43;99950.25;;;14.90;46.53
79269;BME280;68714;48.586;7.772;2023-05-28T04:37:08;99944.84;;;14.92;46.67
79269;BME280;68714;48.586;7.772;2023-05-28T04:39:34;99950.84;;;14.95;46.67
79269;BME280;68714;48.586;7.772;2023-05-28T04:41:59;99941.94;;;14.96;46.50
79269;BME280;68714;48.586;7.772;2023-05-28T04:44:28;99948.75;;;15.01;46.71
79269;BME280;68714;48.586;7.772;2023-05-28T04:46:55;99948.31;;;15.08;46.68
79269;BME280;68714;48.586;7.772;2023-05-28T04:49:24;99952.41;;;15.14;46.69
79269;BME280;68714;48.586;7.772;2023-05-28T04:51:50;99951.22;;;15.20;46.63
79269;BME280;68714;48.586;7.772;2023-05-28T04:54:15;99951.31;;;15.18;46.65
79269;BME280;68714;48.586;7.772;2023-05-28T04:56:40;99948.72;;;15.16;46.69
79269;BME280;68714;48.586;7.772;2023-05-28T04:59:06;99950.53;;;15.16;46.79
79269;BME280;68714;48.586;7.772;2023-05-28T05:01:35;99953.53;;;15.10;47.00
79269;BME280;68714;48.586;7.772;2023-05-28T05:04:01;99952.03;;;15.06;47.10
79269;BME280;68714;48.586;7.772;2023-05-28T05:06:27;99950.47;;;15.02;47.29
79269;BME280;68714;48.586;7.772;2023-05-28T05:08:52;99961.03;;;15.03;47.22
79269;BME280;68714;48.586;7.772;2023-05-28T05:11:19;99950.28;;;15.05;47.42
79269;BME280;68714;48.586;7.772;2023-05-28T05:13:45;99948.47;;;15.05;47.56
79269;BME280;68714;48.586;7.772;2023-05-28T05:16:10;99946.69;;;15.06;47.41
79269;BME280;68714;48.586;7.772;2023-05-28T05:18:36;99952.88;;;15.06;47.63
79269;BME280;68714;48.586;7.772;2023-05-28T05:21:01;99954.06;;;15.01;47.49
79269;BME280;68714;48.586;7.772;2023-05-28T05:23:27;99949.53;;;15.03;47.88
79269;BME280;68714;48.586;7.772;2023-05-28T05:25:52;99955.63;;;15.05;47.81
79269;BME280;68714;48.586;7.772;2023-05-28T05:28:18;99959.03;;;15.07;47.94
79269;BME280;68714;48.586;7.772;2023-05-28T05:30:44;99956.38;;;15.07;48.01
79269;BME280;68714;48.586;7.772;2023-05-28T05:33:09;99952.59;;;15.11;48.10
79269;BME280;68714;48.586;7.772;2023-05-28T05:35:34;99950.63;;;15.14;48.00
79269;BME280;68714;48.586;7.772;2023-05-28T05:38:00;99950.69;;;15.13;47.99
79269;BME280;68714;48.586;7.772;2023-05-28T05:40:26;99955.06;;;15.14;48.02
79269;BME280;68714;48.586;7.772;2023-05-28T05:42:51;99958.25;;;15.21;48.14
79269;BME280;68714;48.586;7.772;2023-05-28T05:45:17;99958.34;;;15.19;48.11
79269;BME280;68714;48.586;7.772;2023-05-28T05:47:42;99960.81;;;15.22;48.14
79269;BME280;68714;48.586;7.772;2023-05-28T05:50:11;99961.75;;;15.21;48.41
79269;BME280;68714;48.586;7.772;2023-05-28T05:52:36;99963.28;;;15.25;48.22
79269;BME280;68714;48.586;7.772;2023-05-28T05:55:02;99968.25;;;15.31;48.26
79269;BME280;68714;48.586;7.772;2023-05-28T05:57:27;99960.75;;;15.38;48.34
79269;BME280;68714;48.586;7.772;2023-05-28T05:59:53;99968.72;;;15.38;48.17
79269;BME280;68714;48.586;7.772;2023-05-28T06:02:19;99974.72;;;15.42;48.34
79269;BME280;68714;48.586;7.772;2023-05-28T06:04:45;99970.84;;;15.47;48.41
79269;BME280;68714;48.586;7.772;2023-05-28T06:07:10;99976.63;;;15.54;48.32
79269;BME280;68714;48.586;7.772;2023-05-28T06:09:36;99974.22;;;15.65;48.34
79269;BME280;68714;48.586;7.772;2023-05-28T06:12:01;99974.06;;;15.83;48.24
79269;BME280;68714;48.586;7.772;2023-05-28T06:14:27;99966.94;;;15.98;47.92
79269;BME280;68714;48.586;7.772;2023-05-28T06:16:53;99981.31;;;16.10;47.85
79269;BME280;68714;48.586;7.772;2023-05-28T06:19:18;99973.59;;;16.19;47.74
79269;BME280;68714;48.586;7.772;2023-05-28T06:21:44;99973.22;;;16.26;47.56
79269;BME280;68714;48.586;7.772;2023-05-28T06:24:09;99970.91;;;16.34;47.65
79269;BME280;68714;48.586;7.772;2023-05-28T06:26:38;99979.28;;;16.42;47.38
79269;BME280;68714;48.586;7.772;2023-05-28T06:29:03;99970.22;;;16.45;47.21
79269;BME280;68714;48.586;7.772;2023-05-28T06:31:30;99969.75;;;16.52;47.43
79269;BME280;68714;48.586;7.772;2023-05-28T06:33:55;99966.50;;;16.62;47.20
79269;BME280;68714;48.586;7.772;2023-05-28T06:36:21;99969.53;;;16.70;47.34
79269;BME280;68714;48.586;7.772;2023-05-28T06:38:47;99968.19;;;16.77;47.20
79269;BME280;68714;48.586;7.772;2023-05-28T06:41:13;99956.75;;;16.75;47.23
79269;BME280;68714;48.586;7.772;2023-05-28T06:43:38;99966.06;;;16.82;47.49
79269;BME280;68714;48.586;7.772;2023-05-28T06:46:04;99963.97;;;16.87;47.10
79269;BME280;68714;48.586;7.772;2023-05-28T06:48:29;99965.38;;;16.93;47.22
79269;BME280;68714;48.586;7.772;2023-05-28T06:50:55;99970.09;;;17.02;47.25
79269;BME280;68714;48.586;7.772;2023-05-28T06:53:21;99964.81;;;17.15;46.97
79269;BME280;68714;48.586;7.772;2023-05-28T06:55:47;99968.56;;;17.25;46.67
79269;BME280;68714;48.586;7.772;2023-05-28T06:58:12;99969.97;;;17.31;46.53
79269;BME280;68714;48.586;7.772;2023-05-28T07:00:38;99971.28;;;17.38;46.68
79269;BME280;68714;48.586;7.772;2023-05-28T07:03:03;99971.72;;;17.45;46.56
79269;BME280;68714;48.586;7.772;2023-05-28T07:05:28;99976.53;;;17.53;46.36
79269;BME280;68714;48.586;7.772;2023-05-28T07:07:54;99976.00;;;17.60;46.46
79269;BME280;68714;48.586;7.772;2023-05-28T07:10:20;99976.53;;;17.65;46.15
79269;BME280;68714;48.586;7.772;2023-05-28T07:12:46;99978.03;;;17.70;45.98
79269;BME280;68714;48.586;7.772;2023-05-28T07:15:11;99974.09;;;17.75;46.01
79269;BME280;68714;48.586;7.772;2023-05-28T07:17:37;99968.00;;;17.86;46.07
79269;BME280;68714;48.586;7.772;2023-05-28T07:20:02;99968.03;;;17.99;45.94
79269;BME280;68714;48.586;7.772;2023-05-28T07:22:29;99971.66;;;18.11;45.72
79269;BME280;68714;48.586;7.772;2023-05-28T07:24:55;99976.53;;;18.30;45.96
79269;BME280;68714;48.586;7.772;2023-05-28T07:27:22;99971.47;;;18.51;45.74
79269;BME280;68714;48.586;7.772;2023-05-28T07:29:48;99968.66;;;18.65;45.51
79269;BME280;68714;48.586;7.772;2023-05-28T07:32:14;99975.44;;;18.82;45.32
79269;BME280;68714;48.586;7.772;2023-05-28T07:34:39;99964.13;;;19.03;44.71
79269;BME280;68714;48.586;7.772;2023-05-28T07:37:25;99980.41;;;19.24;44.76
79269;BME280;68714;48.586;7.772;2023-05-28T07:39:52;99976.34;;;19.42;44.61
79269;BME280;68714;48.586;7.772;2023-05-28T07:42:17;99979.03;;;19.54;44.13
79269;BME280;68714;48.586;7.772;2023-05-28T07:44:44;99984.31;;;19.67;44.11
79269;BME280;68714;48.586;7.772;2023-05-28T07:47:09;99979.75;;;19.80;44.08
79269;BME280;68714;48.586;7.772;2023-05-28T07:49:38;99979.63;;;19.93;43.96
79269;BME280;68714;48.586;7.772;2023-05-28T07:52:06;99972.56;;;20.14;44.02
79269;BME280;68714;48.586;7.772;2023-05-28T07:54:33;99974.88;;;20.30;43.44
79269;BME280;68714;48.586;7.772;2023-05-28T07:56:59;99974.25;;;20.38;43.32
79269;BME280;68714;48.586;7.772;2023-05-28T07:59:25;99972.69;;;20.47;42.90
79269;BME280;68714;48.586;7.772;2023-05-28T08:01:52;99967.56;;;20.55;42.64
79269;BME280;68714;48.586;7.772;2023-05-28T08:04:27;99966.06;;;20.62;41.67
79269;BME280;68714;48.586;7.772;2023-05-28T08:06:52;99961.66;;;20.84;42.62
79269;BME280;68714;48.586;7.772;2023-05-28T08:09:18;99968.03;;;21.04;42.41
79269;BME280;68714;48.586;7.772;2023-05-28T08:11:44;99961.19;;;21.11;42.20
79269;BME280;68714;48.586;7.772;2023-05-28T08:14:09;99961.69;;;21.16;42.07
79269;BME280;68714;48.586;7.772;2023-05-28T08:16:35;99956.78;;;21.22;42.21
79269;BME280;68714;48.586;7.772;2023-05-28T08:19:00;99953.63;;;21.37;41.88
79269;BME280;68714;48.586;7.772;2023-05-28T08:21:26;99959.94;;;21.48;41.47
79269;BME280;68714;48.586;7.772;2023-05-28T08:23:54;99958.84;;;21.50;41.01
79269;BME280;68714;48.586;7.772;2023-05-28T08:26:19;99953.94;;;21.55;41.26
79269;BME280;68714;48.586;7.772;2023-05-28T08:28:45;99954.72;;;21.67;41.21
79269;BME280;68714;48.586;7.772;2023-05-28T08:31:10;99958.31;;;21.78;40.93
79269;BME280;68714;48.586;7.772;2023-05-28T08:33:36;99953.97;;;21.86;40.87
79269;BME280;68714;48.586;7.772;2023-05-28T08:36:02;99951.50;;;22.04;40.60
79269;BME280;68714;48.586;7.772;2023-05-28T08:38:28;99948.41;;;22.09;40.27
79269;BME280;68714;48.586;7.772;2023-05-28T08:40:55;99951.50;;;22.04;40.30
79269;BME280;68714;48.586;7.772;2023-05-28T08:43:22;99952.75;;;22.00;40.23
79269;BME280;68714;48.586;7.772;2023-05-28T08:45:52;99944.03;;;22.08;40.40
79269;BME280;68714;48.586;7.772;2023-05-28T08:48:18;99951.34;;;22.27;40.54
79269;BME280;68714;48.586;7.772;2023-05-28T08:50:46;99945.31;;;22.44;40.20
79269;BME280;68714;48.586;7.772;2023-05-28T08:53:18;99939.97;;;22.54;39.31
79269;BME280;68714;48.586;7.772;2023-05-28T08:55:46;99952.41;;;22.46;39.51
79269;BME280;68714;48.586;7.772;2023-05-28T08:58:13;99941.78;;;22.44;39.90
79269;BME280;68714;48.586;7.772;2023-05-28T09:00:39;99939.84;;;22.66;39.61
79269;BME280;68714;48.586;7.772;2023-05-28T09:03:05;99935.75;;;22.81;39.53
79269;BME280;68714;48.586;7.772;2023-05-28T09:05:37;99939.00;;;22.85;39.01
79269;BME280;68714;48.586;7.772;2023-05-28T09:08:10;99932.06;;;22.72;38.68
79269;BME280;68714;48.586;7.772;2023-05-28T09:10:37;99931.38;;;22.70;39.31
79269;BME280;68714;48.586;7.772;2023-05-28T09:13:04;99935.91;;;22.70;38.81
79269;BME280;68714;48.586;7.772;2023-05-28T09:15:33;99927.84;;;22.70;38.90
79269;BME280;68714;48.586;7.772;2023-05-28T09:18:05;99924.03;;;22.82;38.96
79269;BME280;68714;48.586;7.772;2023-05-28T09:20:31;99924.16;;;22.90;38.84
79269;BME280;68714;48.586;7.772;2023-05-28T09:23:01;99929.41;;;22.92;38.54
79269;BME280;68714;48.586;7.772;2023-05-28T09:25:27;99927.25;;;22.95;38.41
79269;BME280;68714;48.586;7.772;2023-05-28T09:27:54;99924.44;;;23.07;38.43
79269;BME280;68714;48.586;7.772;2023-05-28T09:30:20;99925.47;;;23.15;38.28
79269;BME280;68714;48.586;7.772;2023-05-28T09:32:55;99922.06;;;23.23;38.50
79269;BME280;68714;48.586;7.772;2023-05-28T09:35:24;99909.53;;;23.51;37.84
79269;BME280;68714;48.586;7.772;2023-05-28T09:38:02;99910.78;;;23.67;37.83
79269;BME280;68714;48.586;7.772;2023-05-28T09:40:27;99900.94;;;23.85;37.89
79269;BME280;68714;48.586;7.772;2023-05-28T09:42:54;99900.03;;;24.04;37.95
79269;BME280;68714;48.586;7.772;2023-05-28T09:45:24;99899.72;;;24.35;37.56
79269;BME280;68714;48.586;7.772;2023-05-28T09:47:50;99898.34;;;24.49;37.05
79269;BME280;68714;48.586;7.772;2023-05-28T09:50:16;99895.97;;;24.46;37.03
79269;BME280;68714;48.586;7.772;2023-05-28T09:52:45;99889.63;;;24.37;36.81
79269;BME280;68714;48.586;7.772;2023-05-28T09:55:15;99899.16;;;24.32;36.61
79269;BME280;68714;48.586;7.772;2023-05-28T12:16:11;99809.13;;;26.59;28.71
79269;BME280;68714;48.586;7.772;2023-05-28T12:18:43;99806.81;;;26.81;28.04
79269;BME280;68714;48.586;7.772;2023-05-28T12:21:13;99807.97;;;27.03;28.60
79269;BME280;68714;48.586;7.772;2023-05-28T12:23:44;99812.34;;;27.37;28.77
79269;BME280;68714;48.586;7.772;2023-05-28T12:26:10;99806.72;;;27.47;27.60
79269;BME280;68714;48.586;7.772;2023-05-28T12:28:37;99795.41;;;27.43;27.83
79269;BME280;68714;48.586;7.772;2023-05-28T12:31:05;99788.75;;;27.54;27.86
79269;BME280;68714;48.586;7.772;2023-05-28T12:33:31;99801.78;;;27.50;27.42
79269;BME280;68714;48.586;7.772;2023-05-28T12:35:56;99804.75;;;27.32;27.65
79269;BME280;68714;48.586;7.772;2023-05-28T12:38:21;99793.88;;;27.24;27.82
79269;BME280;68714;48.586;7.772;2023-05-28T12:40:47;99788.59;;;27.47;27.88
79269;BME280;68714;48.586;7.772;2023-05-28T12:43:14;99781.75;;;27.59;27.47
79269;BME280;68714;48.586;7.772;2023-05-28T12:45:40;99781.53;;;27.77;27.45
79269;BME280;68714;48.586;7.772;2023-05-28T12:48:05;99773.31;;;27.94;27.17
79269;BME280;68714;48.586;7.772;2023-05-28T12:50:32;99773.84;;;27.89;27.23
79269;BME280;68714;48.586;7.772;2023-05-28T12:52:57;99775.97;;;28.10;27.17
79269;BME280;68714;48.586;7.772;2023-05-28T12:55:23;99762.88;;;28.14;26.58
79269;BME280;68714;48.586;7.772;2023-05-28T12:57:51;99769.03;;;28.08;26.91
79269;BME280;68714;48.586;7.772;2023-05-28T13:00:16;99761.47;;;27.95;26.88
79269;BME280;68714;48.586;7.772;2023-05-28T13:02:42;99761.84;;;27.84;27.32
79269;BME280;68714;48.586;7.772;2023-05-28T13:05:07;99761.78;;;28.00;27.67
79269;BME280;68714;48.586;7.772;2023-05-28T13:07:34;99759.91;;;28.24;27.08
79269;BME280;68714;48.586;7.772;2023-05-28T13:09:59;99756.72;;;28.43;26.83
79269;BME280;68714;48.586;7.772;2023-05-28T13:12:25;99747.69;;;28.51;26.92
79269;BME280;68714;48.586;7.772;2023-05-28T13:14:51;99743.34;;;28.65;26.99
79269;BME280;68714;48.586;7.772;2023-05-28T13:17:16;99741.69;;;28.56;26.92
79269;BME280;68714;48.586;7.772;2023-05-28T13:19:41;99754.63;;;28.31;27.04
79269;BME280;68714;48.586;7.772;2023-05-28T13:22:07;99743.53;;;28.17;27.13
79269;BME280;68714;48.586;7.772;2023-05-28T13:24:36;99744.72;;;28.15;27.42
79269;BME280;68714;48.586;7.772;2023-05-28T13:27:02;99753.19;;;28.20;27.07
79269;BME280;68714;48.586;7.772;2023-05-28T13:29:27;99734.47;;;28.02;27.25
79269;BME280;68714;48.586;7.772;2023-05-28T13:31:53;99737.84;;;28.04;27.47
79269;BME280;68714;48.586;7.772;2023-05-28T13:34:18;99747.97;;;28.10;27.55
79269;BME280;68714;48.586;7.772;2023-05-28T13:36:43;99731.13;;;28.00;27.26
79269;BME280;68714;48.586;7.772;2023-05-28T13:39:09;99724.78;;;28.07;27.53
79269;BME280;68714;48.586;7.772;2023-05-28T13:41:45;99735.75;;;28.37;26.61
79269;BME280;68714;48.586;7.772;2023-05-28T13:44:11;99737.72;;;28.43;26.88
79269;BME280;68714;48.586;7.772;2023-05-28T13:46:38;99731.66;;;28.41;27.11
79269;BME280;68714;48.586;7.772;2023-05-28T13:49:04;99725.56;;;28.39;26.92
79269;BME280;68714;48.586;7.772;2023-05-28T13:51:29;99721.91;;;28.32;26.95
79269;BME280;68714;48.586;7.772;2023-05-28T13:53:55;99729.03;;;28.33;26.66
79269;BME280;68714;48.586;7.772;2023-05-28T13:56:22;99727.19;;;28.49;26.69
79269;BME280;68714;48.586;7.772;2023-05-28T13:58:48;99718.31;;;28.55;26.59
79269;BME280;68714;48.586;7.772;2023-05-28T14:01:13;99715.38;;;28.41;26.25
79269;BME280;68714;48.586;7.772;2023-05-28T14:03:39;99707.50;;;28.46;26.72
79269;BME280;68714;48.586;7.772;2023-05-28T14:06:07;99714.63;;;28.71;26.47
79269;BME280;68714;48.586;7.772;2023-05-28T14:08:34;99703.56;;;28.72;26.01
79269;BME280;68714;48.586;7.772;2023-05-28T14:10:59;99699.56;;;28.83;26.40
79269;BME280;68714;48.586;7.772;2023-05-28T14:13:26;99702.56;;;29.03;26.43
79269;BME280;68714;48.586;7.772;2023-05-28T14:15:57;99709.25;;;29.30;26.26
79269;BME280;68714;48.586;7.772;2023-05-28T14:18:24;99700.34;;;29.37;26.06
79269;BME280;68714;48.586;7.772;2023-05-28T14:20:50;99706.63;;;29.37;25.59
79269;BME280;68714;48.586;7.772;2023-05-28T14:23:15;99698.69;;;29.21;25.59
79269;BME280;68714;48.586;7.772;2023-05-28T14:25:41;99700.72;;;29.04;25.36
79269;BME280;68714;48.586;7.772;2023-05-28T14:28:06;99691.41;;;28.83;24.82
79269;BME280;68714;48.586;7.772;2023-05-28T14:30:33;99682.22;;;28.69;25.18
79269;BME280;68714;48.586;7.772;2023-05-28T14:33:00;99687.56;;;28.77;24.84
79269;BME280;68714;48.586;7.772;2023-05-28T14:35:25;99686.00;;;28.83;24.96
79269;BME280;68714;48.586;7.772;2023-05-28T14:37:52;99686.25;;;28.88;24.66
79269;BME280;68714;48.586;7.772;2023-05-28T14:40:18;99690.50;;;28.91;24.70
79269;BME280;68714;48.586;7.772;2023-05-28T14:42:45;99679.63;;;29.06;24.55
79269;BME280;68714;48.586;7.772;2023-05-28T14:45:12;99681.91;;;29.02;23.98
79269;BME280;68714;48.586;7.772;2023-05-28T14:47:38;99687.00;;;28.82;23.87
79269;BME280;68714;48.586;7.772;2023-05-28T14:50:05;99686.09;;;28.75;24.11
79269;BME280;68714;48.586;7.772;2023-05-28T14:52:31;99680.09;;;28.79;23.47
79269;BME280;68714;48.586;7.772;2023-05-28T14:54:57;99672.78;;;28.80;23.67
79269;BME280;68714;48.586;7.772;2023-05-28T14:57:24;99669.78;;;28.90;23.34
79269;BME280;68714;48.586;7.772;2023-05-28T14:59:52;99670.09;;;28.95;22.91
79269;BME280;68714;48.586;7.772;2023-05-28T15:02:18;99676.91;;;28.91;22.97
79269;BME280;68714;48.586;7.772;2023-05-28T15:04:44;99670.34;;;28.85;23.36
79269;BME280;68714;48.586;7.772;2023-05-28T15:07:11;99660.72;;;28.82;23.29
79269;BME280;68714;48.586;7.772;2023-05-28T15:09:37;99668.13;;;29.04;23.03
79269;BME280;68714;48.586;7.772;2023-05-28T15:12:04;99662.19;;;29.15;22.60
79269;BME280;68714;48.586;7.772;2023-05-28T15:14:31;99650.97;;;29.03;22.71